Time;durP1;ratioP1;P1;durP2;ratioP2;P2;SDS_P1;SDS_P2;PMS_P1;PMS_P2;Temp;Humidity;BMP_temperature;BMP_pressure;BME280_temperature;BME280_humidity;BME280_pressure;Samples;Min_cycle;Max_cycle;Signal;HPM_P1;HPM_P2
2022/01/06 00:00:01;;;;;;;4.57;1.25;;;3.90;99.90;;;;;;4979587;28;20112;-68
2022/01/06 00:02:26;;;;;;;1.98;1.08;;;3.80;99.90;;;;;;4978653;28;20418;-68
2022/01/06 00:04:52;;;;;;;4.75;1.65;;;3.80;99.90;;;;;;4981470;28;20029;-68
2022/01/06 00:07:18;;;;;;;5.88;1.30;;;3.70;99.90;;;;;;4979846;28;20033;-68
2022/01/06 00:09:44;;;;;;;5.85;1.98;;;3.70;99.90;;;;;;4983649;28;20421;-68
2022/01/06 00:12:13;;;;;;;4.13;1.63;;;3.70;99.90;;;;;;4983187;28;20671;-68
2022/01/06 00:15:05;;;;;;;2.20;1.45;;;3.70;99.90;;;;;;4986394;28;20035;-68
2022/01/06 00:17:45;;;;;;;5.75;2.15;;;3.60;99.90;;;;;;4973563;28;20073;-68
2022/01/06 00:25:30;;;;;;;7.10;2.35;;;3.50;99.90;;;;;;4981186;28;20074;-68
2022/01/06 00:27:55;;;;;;;1.95;1.10;;;3.50;99.90;;;;;;4975929;28;20596;-68
2022/01/06 00:30:21;;;;;;;3.40;1.77;;;3.50;99.90;;;;;;4976311;28;20481;-68
2022/01/06 00:32:47;;;;;;;6.70;1.50;;;3.50;99.90;;;;;;4976942;28;20038;-68
2022/01/06 00:35:13;;;;;;;4.57;1.55;;;3.50;99.90;;;;;;4982957;28;20129;-68
2022/01/06 00:37:38;;;;;;;27.25;1.85;;;3.50;99.90;;;;;;4983625;28;20037;-68
2022/01/06 00:40:05;;;;;;;3.03;1.77;;;3.40;99.90;;;;;;4975511;28;20031;-68
2022/01/06 00:42:30;;;;;;;4.25;1.10;;;3.50;99.90;;;;;;4985494;28;20030;-68
2022/01/06 00:44:56;;;;;;;5.03;1.63;;;3.60;99.90;;;;;;4982250;28;20022;-68
2022/01/06 00:47:22;;;;;;;6.22;2.15;;;3.60;99.90;;;;;;4980898;28;20026;-68
2022/01/06 00:49:47;;;;;;;1.80;1.25;;;3.70;99.90;;;;;;4976968;28;20059;-68
2022/01/06 00:52:13;;;;;;;21.40;1.55;;;3.70;99.90;;;;;;4981291;28;20069;-68
2022/01/06 00:54:39;;;;;;;5.60;1.42;;;3.70;99.90;;;;;;4979520;28;20100;-68
2022/01/06 00:57:04;;;;;;;0.85;0.85;;;3.70;99.90;;;;;;4980065;28;20018;-68
2022/01/06 00:59:30;;;;;;;6.35;1.75;;;3.70;99.90;;;;;;4983629;28;20025;-68
2022/01/06 01:01:56;;;;;;;2.38;1.38;;;3.70;99.90;;;;;;4979677;28;20487;-68
2022/01/06 01:04:21;;;;;;;8.35;2.33;;;3.70;99.90;;;;;;4977626;28;20097;-68
2022/01/06 01:06:47;;;;;;;5.40;1.42;;;3.70;99.90;;;;;;4984100;28;20034;-69
2022/01/06 01:09:13;;;;;;;2.50;1.75;;;3.80;99.90;;;;;;4986345;28;20050;-68
2022/01/06 01:11:38;;;;;;;13.30;2.95;;;3.80;99.90;;;;;;4987125;28;20038;-68
2022/01/06 01:14:18;;;;;;;8.50;1.45;;;3.80;99.90;;;;;;4984265;28;20508;-68
2022/01/06 01:16:53;;;;;;;0.80;0.80;;;3.80;99.90;;;;;;4986823;28;20072;-68
2022/01/06 01:19:20;;;;;;;5.03;1.63;;;3.80;99.90;;;;;;4989242;28;20030;-68
2022/01/06 01:21:45;;;;;;;8.75;2.35;;;3.80;99.90;;;;;;4986686;28;20035;-68
2022/01/06 01:24:11;;;;;;;0.82;0.80;;;3.80;99.90;;;;;;4980417;28;20530;-68
2022/01/06 01:26:37;;;;;;;5.25;1.88;;;3.80;99.90;;;;;;4982471;28;20065;-68
2022/01/06 01:29:03;;;;;;;1.33;1.10;;;3.80;99.90;;;;;;4986282;28;20033;-68
2022/01/06 01:31:35;;;;;;;13.32;2.35;;;3.70;99.90;;;;;;4982087;28;20394;-68
2022/01/06 01:34:08;;;;;;;8.73;1.83;;;3.70;99.90;;;;;;4980273;28;20030;-68
2022/01/06 01:36:34;;;;;;;2.65;1.40;;;3.60;99.90;;;;;;4973993;28;20039;-68
2022/01/06 01:38:59;;;;;;;1.38;1.27;;;3.50;99.90;;;;;;4982763;28;20037;-68
2022/01/06 01:41:25;;;;;;;1.65;1.20;;;3.50;99.90;;;;;;4977706;28;20033;-68
2022/01/06 01:43:53;;;;;;;1.92;1.13;;;3.50;99.90;;;;;;4986585;28;20548;-68
2022/01/06 01:46:27;;;;;;;10.05;2.53;;;3.40;99.90;;;;;;4985298;28;20026;-68
2022/01/06 01:49:13;;;;;;;4.03;2.05;;;3.50;99.90;;;;;;4979092;28;20030;-68
2022/01/06 01:51:39;;;;;;;1.58;1.15;;;3.50;99.90;;;;;;4984583;28;20056;-68
2022/01/06 01:54:05;;;;;;;2.25;1.35;;;3.50;99.90;;;;;;4979464;28;20120;-68
2022/01/06 01:56:30;;;;;;;10.07;2.72;;;3.50;99.90;;;;;;4981661;28;20092;-68
2022/01/06 01:58:56;;;;;;;0.82;0.80;;;3.50;99.90;;;;;;4987884;28;20030;-68
2022/01/06 02:01:22;;;;;;;2.15;1.10;;;3.50;99.90;;;;;;4981048;28;20022;-68
2022/01/06 02:03:48;;;;;;;13.15;2.88;;;3.50;99.90;;;;;;4980789;28;20030;-68
2022/01/06 02:06:13;;;;;;;4.05;3.65;;;3.40;99.90;;;;;;4986587;28;20031;-68
2022/01/06 02:08:39;;;;;;;2.05;1.15;;;3.40;99.90;;;;;;4983478;28;20045;-68
2022/01/06 02:11:05;;;;;;;8.88;2.25;;;3.40;99.90;;;;;;4984050;28;20049;-66
2022/01/06 02:13:31;;;;;;;3.80;1.02;;;3.40;99.90;;;;;;4986168;28;20033;-66
2022/01/06 02:15:59;;;;;;;3.25;1.38;;;3.40;99.90;;;;;;4986573;28;20022;-66
2022/01/06 02:18:26;;;;;;;3.85;0.90;;;3.40;99.90;;;;;;4981322;28;20058;-66
2022/01/06 02:20:52;;;;;;;7.55;2.15;;;3.40;99.90;;;;;;4985496;28;20026;-66
2022/01/06 02:23:21;;;;;;;3.40;1.02;;;3.40;99.90;;;;;;4985689;28;20081;-66
2022/01/06 02:25:46;;;;;;;5.35;1.58;;;3.40;99.90;;;;;;4986622;28;20054;-66
2022/01/06 02:28:12;;;;;;;1.38;1.23;;;3.40;99.90;;;;;;4984422;28;20044;-66
2022/01/06 02:30:38;;;;;;;4.90;1.77;;;3.30;99.90;;;;;;4987369;28;20076;-68
2022/01/06 02:33:05;;;;;;;4.50;2.33;;;3.20;99.90;;;;;;4984165;28;20120;-68
2022/01/06 02:35:31;;;;;;;0.75;0.75;;;3.20;99.90;;;;;;4985762;28;20753;-68
2022/01/06 02:37:58;;;;;;;13.95;2.45;;;3.20;99.90;;;;;;4987179;28;20101;-68
2022/01/06 02:40:26;;;;;;;31.25;1.70;;;3.20;99.90;;;;;;4981005;28;20053;-68
2022/01/06 02:42:57;;;;;;;1.90;1.17;;;3.10;99.90;;;;;;4984960;28;20038;-68
2022/01/06 02:45:26;;;;;;;16.00;1.17;;;3.20;99.90;;;;;;4979268;28;20038;-68
2022/01/06 02:47:53;;;;;;;0.77;0.73;;;3.30;99.90;;;;;;4987598;28;20049;-68
2022/01/06 02:50:18;;;;;;;6.85;3.00;;;3.30;99.90;;;;;;4987329;28;20085;-68
2022/01/06 02:52:45;;;;;;;1.88;1.27;;;3.30;99.90;;;;;;4984735;28;20101;-68
2022/01/06 02:55:12;;;;;;;19.95;2.80;;;3.30;99.90;;;;;;4985939;28;20166;-68
2022/01/06 02:57:38;;;;;;;4.50;1.80;;;3.30;99.90;;;;;;4983059;28;20026;-68
2022/01/06 03:00:07;;;;;;;1.60;1.10;;;3.30;99.90;;;;;;4986096;28;20037;-68
2022/01/06 03:02:32;;;;;;;1.00;0.90;;;3.30;99.90;;;;;;4981560;28;20027;-68
2022/01/06 03:04:58;;;;;;;4.30;1.83;;;3.30;99.90;;;;;;4980731;28;20057;-68
2022/01/06 03:07:26;;;;;;;6.80;3.10;;;3.20;99.90;;;;;;4983016;28;20534;-68
2022/01/06 03:09:55;;;;;;;0.70;0.70;;;3.20;99.90;;;;;;4981064;28;20053;-69
2022/01/06 03:12:27;;;;;;;0.70;0.70;;;3.20;99.90;;;;;;4980411;28;20430;-68
2022/01/06 03:14:53;;;;;;;3.53;2.30;;;3.10;99.90;;;;;;4978966;28;20434;-68
2022/01/06 03:17:18;;;;;;;1.08;0.90;;;3.00;99.90;;;;;;4979498;28;20077;-68
2022/01/06 03:19:44;;;;;;;5.78;1.50;;;3.00;99.90;;;;;;4980544;28;20054;-68
2022/01/06 03:22:10;;;;;;;7.40;1.33;;;3.00;99.90;;;;;;4984427;28;20399;-68
2022/01/06 03:24:35;;;;;;;9.48;1.33;;;3.00;99.90;;;;;;4980230;28;20065;-68
2022/01/06 03:27:01;;;;;;;9.20;2.78;;;2.90;99.90;;;;;;4984845;28;20045;-69
2022/01/06 03:29:27;;;;;;;2.60;0.90;;;2.90;99.90;;;;;;4983636;28;20080;-68
2022/01/06 03:31:53;;;;;;;1.70;1.25;;;2.90;99.90;;;;;;4981990;28;20683;-68
2022/01/06 03:34:18;;;;;;;2.20;1.80;;;2.90;99.90;;;;;;4979417;28;20054;-68
2022/01/06 03:36:44;;;;;;;1.13;1.02;;;2.90;99.90;;;;;;4977990;28;20073;-68
2022/01/06 03:39:09;;;;;;;10.35;2.25;;;2.90;99.90;;;;;;4983952;28;20447;-68
2022/01/06 03:41:35;;;;;;;3.63;1.88;;;2.90;99.90;;;;;;4976787;28;20042;-68
2022/01/06 03:44:01;;;;;;;2.20;1.25;;;3.00;99.90;;;;;;4996632;28;20022;-68
2022/01/06 03:46:27;;;;;;;13.23;2.88;;;3.00;99.90;;;;;;4980444;28;20101;-66
2022/01/06 03:48:52;;;;;;;1.00;0.80;;;2.90;99.90;;;;;;4979392;28;20534;-66
2022/01/06 03:51:20;;;;;;;7.72;1.25;;;3.00;99.90;;;;;;4979564;28;20406;-66
2022/01/06 03:53:47;;;;;;;1.13;0.75;;;3.00;99.90;;;;;;4979175;28;20026;-68
2022/01/06 03:56:13;;;;;;;5.22;2.45;;;2.90;99.90;;;;;;4983446;28;20450;-68
2022/01/06 03:58:40;;;;;;;1.27;0.80;;;2.80;99.90;;;;;;4977967;28;20753;-68
2022/01/06 04:01:09;;;;;;;2.50;2.13;;;2.90;99.90;;;;;;4978995;28;20018;-68
2022/01/06 04:03:34;;;;;;;0.80;0.80;;;2.80;99.90;;;;;;4998862;28;20034;-68
2022/01/06 04:06:00;;;;;;;12.45;3.22;;;2.80;99.90;;;;;;4978308;28;20088;-68
2022/01/06 04:08:26;;;;;;;2.08;1.85;;;2.80;99.90;;;;;;4980659;28;20018;-68
2022/01/06 04:10:51;;;;;;;19.30;3.33;;;2.80;99.90;;;;;;4983058;28;20380;-68
2022/01/06 04:13:17;;;;;;;1.10;1.00;;;2.70;99.90;;;;;;4981578;28;20027;-68
2022/01/06 04:15:44;;;;;;;1.20;1.10;;;2.60;99.90;;;;;;4984992;28;20425;-68
2022/01/06 04:18:10;;;;;;;6.25;1.80;;;2.60;99.90;;;;;;4979726;28;20034;-68
2022/01/06 04:20:35;;;;;;;10.05;1.27;;;2.60;99.90;;;;;;4980615;28;20019;-68
2022/01/06 04:23:01;;;;;;;2.50;1.83;;;2.40;99.90;;;;;;4983899;28;20027;-69
2022/01/06 04:25:26;;;;;;;15.73;2.22;;;2.30;99.90;;;;;;4983358;28;20027;-68
2022/01/06 04:27:52;;;;;;;0.70;0.70;;;2.40;99.90;;;;;;4983655;28;20072;-68
2022/01/06 04:30:18;;;;;;;1.20;0.95;;;2.50;99.90;;;;;;4979109;28;20019;-68
2022/01/06 04:32:43;;;;;;;2.60;1.65;;;2.70;99.90;;;;;;4982300;28;20037;-68
2022/01/06 04:35:10;;;;;;;0.70;0.70;;;2.70;99.90;;;;;;4982251;28;20026;-68
2022/01/06 04:37:36;;;;;;;3.38;1.65;;;2.70;99.90;;;;;;4985134;28;20097;-68
2022/01/06 04:40:03;;;;;;;6.72;2.10;;;2.60;99.90;;;;;;4987610;28;20027;-68
2022/01/06 04:42:29;;;;;;;9.30;1.25;;;2.50;99.90;;;;;;4988378;28;20019;-68
2022/01/06 04:44:54;;;;;;;18.42;2.33;;;2.40;99.90;;;;;;4989552;28;20482;-68
2022/01/06 04:47:20;;;;;;;5.97;1.63;;;2.30;99.90;;;;;;4986032;28;20030;-68
2022/01/06 04:49:45;;;;;;;2.10;0.88;;;2.20;99.90;;;;;;4990130;28;20065;-68
2022/01/06 04:52:11;;;;;;;5.82;1.02;;;2.10;99.90;;;;;;4991018;28;20494;-68
2022/01/06 04:54:37;;;;;;;1.13;1.02;;;2.00;99.90;;;;;;4979633;28;20046;-68
2022/01/06 04:57:02;;;;;;;2.55;1.30;;;2.00;99.90;;;;;;4989340;28;20113;-68
2022/01/06 04:59:28;;;;;;;1.58;1.17;;;1.90;99.90;;;;;;4987350;28;20467;-68
2022/01/06 05:01:54;;;;;;;6.47;1.40;;;1.90;99.90;;;;;;4982585;28;20570;-68
2022/01/06 05:04:19;;;;;;;2.38;1.83;;;1.90;99.90;;;;;;4989432;28;20030;-69
2022/01/06 05:06:45;;;;;;;3.83;1.85;;;1.80;99.90;;;;;;4989797;28;20129;-69
2022/01/06 05:09:10;;;;;;;5.47;2.25;;;1.70;99.90;;;;;;4989386;28;20034;-68
2022/01/06 05:11:36;;;;;;;1.25;1.00;;;1.60;99.90;;;;;;4986811;28;20030;-68
2022/01/06 05:14:02;;;;;;;1.67;1.30;;;1.50;99.90;;;;;;4992910;28;20026;-69
2022/01/06 05:16:27;;;;;;;5.13;2.33;;;1.60;99.90;;;;;;4984024;28;20019;-66
2022/01/06 05:18:53;;;;;;;6.03;1.80;;;1.80;99.90;;;;;;4990081;28;20030;-67
2022/01/06 05:21:18;;;;;;;1.73;1.10;;;1.80;99.90;;;;;;4988951;28;20474;-66
2022/01/06 05:23:44;;;;;;;3.72;1.27;;;1.90;99.90;;;;;;4995371;28;20538;-66
2022/01/06 05:26:10;;;;;;;11.40;1.80;;;1.90;99.90;;;;;;4990741;28;20030;-66
2022/01/06 05:28:36;;;;;;;9.13;1.15;;;1.80;99.90;;;;;;5002342;28;20442;-68
2022/01/06 05:31:02;;;;;;;1.80;1.15;;;1.90;99.90;;;;;;4987179;28;20026;-69
2022/01/06 05:33:27;;;;;;;7.35;2.00;;;1.80;99.90;;;;;;4984405;28;20035;-69
2022/01/06 05:35:53;;;;;;;8.07;2.85;;;1.70;99.90;;;;;;4984266;28;20023;-68
2022/01/06 05:38:19;;;;;;;1.40;1.00;;;1.70;99.90;;;;;;4982532;28;20394;-69
2022/01/06 05:40:45;;;;;;;4.93;1.90;;;1.50;99.90;;;;;;4987617;28;20033;-69
2022/01/06 05:43:11;;;;;;;5.45;2.75;;;1.50;99.90;;;;;;4984043;28;20129;-66
2022/01/06 05:45:37;;;;;;;10.35;1.63;;;1.40;99.90;;;;;;4987812;28;20033;-66
2022/01/06 05:48:03;;;;;;;2.38;1.85;;;1.50;99.90;;;;;;4980451;28;20015;-66
2022/01/06 05:50:29;;;;;;;1.25;1.00;;;1.60;99.90;;;;;;4985368;28;20022;-66
2022/01/06 05:52:54;;;;;;;2.50;1.90;;;1.60;99.90;;;;;;4984916;28;20045;-66
2022/01/06 05:55:23;;;;;;;1.85;0.93;;;1.70;99.90;;;;;;4983410;28;20026;-66
2022/01/06 05:57:52;;;;;;;3.63;1.35;;;1.70;99.90;;;;;;4983178;28;20407;-68
2022/01/06 06:00:18;;;;;;;1.23;1.10;;;1.60;99.90;;;;;;4984808;28;20368;-68
2022/01/06 06:02:44;;;;;;;10.68;1.95;;;1.60;99.90;;;;;;4982027;28;20046;-68
2022/01/06 06:05:10;;;;;;;2.13;1.35;;;1.50;99.90;;;;;;4981087;28;20363;-68
2022/01/06 06:07:35;;;;;;;5.00;2.10;;;1.50;99.90;;;;;;4982781;28;20486;-68
2022/01/06 06:10:01;;;;;;;17.67;2.63;;;1.50;99.90;;;;;;4998950;28;20069;-69
2022/01/06 06:12:26;;;;;;;2.22;1.65;;;1.50;99.90;;;;;;4981594;28;20049;-68
2022/01/06 06:14:52;;;;;;;1.75;1.15;;;1.50;99.90;;;;;;4988438;28;20030;-68
2022/01/06 06:17:17;;;;;;;3.63;2.28;;;1.60;99.90;;;;;;4983782;28;20027;-66
2022/01/06 06:19:43;;;;;;;4.43;2.50;;;1.60;99.90;;;;;;4981918;28;20023;-68
2022/01/06 06:22:10;;;;;;;3.30;2.08;;;1.60;99.90;;;;;;4984173;28;20033;-68
2022/01/06 06:24:37;;;;;;;4.22;2.53;;;1.60;99.90;;;;;;4981298;28;20054;-68
2022/01/06 06:27:03;;;;;;;2.95;1.98;;;1.50;99.90;;;;;;4984855;28;20578;-66
2022/01/06 06:29:29;;;;;;;2.65;1.63;;;1.50;99.90;;;;;;4987463;28;20041;-67
2022/01/06 06:31:55;;;;;;;2.58;1.60;;;1.50;99.90;;;;;;4980873;28;20109;-67
2022/01/06 06:34:21;;;;;;;4.20;1.50;;;1.60;99.90;;;;;;4983246;28;20390;-66
2022/01/06 06:36:47;;;;;;;11.57;1.98;;;1.50;99.90;;;;;;4976376;28;20498;-66
2022/01/06 06:39:12;;;;;;;1.80;1.10;;;1.50;99.90;;;;;;4982550;28;20101;-66
2022/01/06 06:41:38;;;;;;;4.13;2.45;;;1.40;99.90;;;;;;4983097;28;20029;-66
2022/01/06 06:44:04;;;;;;;2.45;1.42;;;1.20;99.90;;;;;;4980738;28;20050;-66
2022/01/06 06:46:30;;;;;;;5.75;2.45;;;1.20;99.90;;;;;;4984966;28;20494;-65
2022/01/06 06:48:55;;;;;;;1.85;1.33;;;1.20;99.90;;;;;;4983831;28;20049;-65
2022/01/06 06:51:21;;;;;;;5.70;2.65;;;1.40;99.90;;;;;;4983119;28;20371;-65
2022/01/06 06:53:46;;;;;;;4.63;2.08;;;1.40;99.90;;;;;;4987297;28;20038;-65
2022/01/06 06:56:12;;;;;;;3.60;1.83;;;1.40;99.90;;;;;;4983037;28;20414;-65
2022/01/06 06:58:37;;;;;;;5.65;1.77;;;1.50;99.90;;;;;;4984843;28;20026;-65
2022/01/06 07:01:03;;;;;;;3.53;2.22;;;1.40;99.90;;;;;;4979406;28;20030;-65
2022/01/06 07:03:29;;;;;;;3.03;2.13;;;1.50;99.90;;;;;;4975727;28;20671;-65
2022/01/06 07:05:55;;;;;;;3.90;2.42;;;1.60;99.90;;;;;;4980941;28;20033;-65
2022/01/06 07:08:20;;;;;;;7.22;2.22;;;1.60;99.90;;;;;;4981484;28;20545;-65
2022/01/06 07:10:46;;;;;;;7.95;1.67;;;1.70;99.90;;;;;;4976824;28;20094;-65
2022/01/06 07:13:16;;;;;;;9.55;2.60;;;1.70;99.90;;;;;;4984048;28;20031;-65
2022/01/06 07:15:43;;;;;;;3.78;2.42;;;1.90;99.90;;;;;;4986363;28;20573;-65
2022/01/06 07:18:08;;;;;;;2.67;1.10;;;2.00;99.90;;;;;;4977524;28;20061;-65
2022/01/06 07:20:34;;;;;;;4.38;2.45;;;1.90;99.90;;;;;;4982263;28;20070;-65
2022/01/06 07:23:00;;;;;;;1.17;1.02;;;1.90;99.90;;;;;;4977001;28;20073;-67
2022/01/06 07:25:25;;;;;;;2.97;2.15;;;1.90;99.90;;;;;;4981316;28;20037;-67
2022/01/06 07:27:51;;;;;;;10.25;3.22;;;1.90;99.90;;;;;;4983958;28;20382;-68
2022/01/06 07:30:17;;;;;;;6.85;2.38;;;1.80;99.90;;;;;;4984222;28;20019;-68
2022/01/06 07:32:48;;;;;;;3.35;1.85;;;1.80;99.90;;;;;;4982448;28;20037;-68
2022/01/06 07:35:14;;;;;;;1.77;1.15;;;1.80;99.90;;;;;;4981264;28;20583;-67
2022/01/06 07:37:40;;;;;;;9.75;1.60;;;1.80;99.90;;;;;;4986351;28;20034;-67
2022/01/06 07:40:07;;;;;;;2.38;1.50;;;1.80;99.90;;;;;;4982225;28;20101;-67
2022/01/06 07:42:33;;;;;;;6.20;2.45;;;1.80;99.90;;;;;;4983135;28;20093;-67
2022/01/06 07:45:00;;;;;;;13.98;3.80;;;1.80;99.90;;;;;;4982167;28;20427;-67
2022/01/06 07:47:28;;;;;;;3.97;1.90;;;1.80;99.90;;;;;;4982451;28;20029;-67
2022/01/06 07:49:53;;;;;;;7.47;2.95;;;1.80;99.90;;;;;;4981497;28;20030;-67
2022/01/06 07:52:19;;;;;;;3.47;2.03;;;1.70;99.90;;;;;;4976252;28;20089;-67
2022/01/06 07:54:45;;;;;;;2.67;1.42;;;1.70;99.90;;;;;;4976504;28;20045;-67
2022/01/06 07:57:10;;;;;;;2.00;1.73;;;1.70;99.90;;;;;;4972990;28;20030;-67
2022/01/06 07:59:36;;;;;;;5.03;1.85;;;1.70;99.90;;;;;;4973251;28;20078;-67
2022/01/06 08:02:02;;;;;;;2.95;2.00;;;1.70;99.90;;;;;;4978616;28;20030;-67
2022/01/06 08:04:27;;;;;;;12.57;3.15;;;1.60;99.90;;;;;;4972088;28;20102;-67
2022/01/06 08:06:53;;;;;;;2.03;1.80;;;1.70;99.90;;;;;;4973323;28;20065;-67
2022/01/06 08:09:18;;;;;;;7.20;1.90;;;1.70;99.90;;;;;;4973429;28;20112;-67
2022/01/06 08:11:45;;;;;;;13.32;2.28;;;1.70;99.90;;;;;;4972793;28;20043;-67
2022/01/06 08:14:10;;;;;;;3.38;2.28;;;1.70;99.90;;;;;;4972712;28;20033;-67
2022/01/06 08:16:36;;;;;;;6.85;2.20;;;1.60;99.90;;;;;;4973620;28;20042;-67
2022/01/06 08:19:02;;;;;;;3.22;1.80;;;1.60;99.90;;;;;;4974339;28;20030;-67
2022/01/06 08:21:27;;;;;;;4.82;3.00;;;1.70;99.90;;;;;;4980646;28;20037;-68
2022/01/06 08:23:53;;;;;;;4.85;2.13;;;1.60;99.90;;;;;;4988834;28;20546;-67
2022/01/06 08:26:19;;;;;;;4.93;1.98;;;1.60;99.90;;;;;;4984905;28;20042;-68
2022/01/06 08:28:46;;;;;;;2.60;1.52;;;1.60;99.90;;;;;;4981001;28;20105;-67
2022/01/06 08:31:13;;;;;;;15.07;2.30;;;1.60;99.90;;;;;;4989305;28;20025;-68
2022/01/06 08:33:39;;;;;;;9.10;2.03;;;1.70;99.90;;;;;;4976608;28;20061;-65
2022/01/06 08:36:05;;;;;;;2.97;1.65;;;1.70;99.90;;;;;;4983789;28;20073;-65
2022/01/06 08:38:31;;;;;;;10.80;3.05;;;1.80;99.90;;;;;;4982770;28;20102;-65
2022/01/06 08:40:56;;;;;;;5.68;3.53;;;1.80;99.90;;;;;;4985630;28;20110;-65
2022/01/06 08:43:27;;;;;;;7.53;2.30;;;1.80;99.90;;;;;;4981244;28;20494;-65
2022/01/06 08:45:57;;;;;;;4.95;2.35;;;1.90;99.90;;;;;;4977651;28;20122;-65
2022/01/06 08:48:24;;;;;;;4.68;2.80;;;1.90;99.90;;;;;;4978818;28;20098;-65
2022/01/06 08:50:50;;;;;;;22.88;2.13;;;1.90;99.90;;;;;;4978610;28;20027;-65
2022/01/06 08:53:16;;;;;;;7.45;2.65;;;1.90;99.90;;;;;;4982620;28;20034;-65
2022/01/06 08:55:46;;;;;;;2.78;1.73;;;2.00;99.90;;;;;;4973849;28;20050;-65
2022/01/06 08:58:16;;;;;;;3.08;1.65;;;2.10;99.90;;;;;;4978060;28;20027;-65
2022/01/06 09:00:42;;;;;;;4.73;3.13;;;2.20;99.90;;;;;;4979744;28;20030;-66
2022/01/06 09:03:09;;;;;;;9.90;3.83;;;2.50;99.90;;;;;;4980391;28;20109;-65
2022/01/06 09:05:35;;;;;;;9.77;2.45;;;3.10;99.90;;;;;;4980467;28;20027;-66
2022/01/06 09:08:00;;;;;;;4.50;2.20;;;3.20;99.90;;;;;;4987050;28;20022;-66
2022/01/06 09:10:30;;;;;;;4.75;2.03;;;3.60;99.90;;;;;;4985388;28;20069;-66
2022/01/06 09:12:56;;;;;;;4.33;2.67;;;4.10;99.90;;;;;;4979793;28;20494;-66
2022/01/06 09:15:22;;;;;;;7.68;2.17;;;4.50;99.90;;;;;;4975082;28;20453;-67
2022/01/06 09:17:48;;;;;;;3.78;2.25;;;4.70;99.90;;;;;;4977145;28;20031;-66
2022/01/06 09:20:14;;;;;;;15.32;2.40;;;4.90;99.90;;;;;;4976765;28;20093;-66
2022/01/06 09:22:44;;;;;;;4.53;1.90;;;5.20;99.90;;;;;;4977857;28;20065;-66
2022/01/06 09:25:12;;;;;;;7.93;1.98;;;5.20;99.90;;;;;;4983038;28;20081;-66
2022/01/06 09:27:37;;;;;;;6.70;2.15;;;5.90;99.90;;;;;;4983460;28;20030;-66
2022/01/06 09:30:05;;;;;;;5.10;1.95;;;5.90;99.90;;;;;;4980495;28;20086;-66
2022/01/06 09:32:31;;;;;;;5.13;1.25;;;6.10;99.90;;;;;;4982379;28;20061;-66
2022/01/06 09:34:57;;;;;;;1.05;0.93;;;5.90;99.90;;;;;;4979896;28;20030;-66
2022/01/06 09:37:23;;;;;;;3.70;2.05;;;5.80;99.90;;;;;;4983476;28;20041;-66
2022/01/06 09:39:50;;;;;;;7.00;2.63;;;6.00;99.90;;;;;;4983422;28;20015;-66
2022/01/06 09:42:17;;;;;;;3.65;1.15;;;6.50;99.90;;;;;;4985601;28;20117;-66
2022/01/06 09:44:43;;;;;;;26.17;2.30;;;6.60;99.90;;;;;;4987145;28;20054;-66
2022/01/06 09:47:09;;;;;;;5.65;1.98;;;6.50;99.90;;;;;;4984342;28;20315;-66
2022/01/06 09:49:40;;;;;;;12.40;1.98;;;6.40;99.90;;;;;;4984617;28;20518;-66
2022/01/06 09:52:07;;;;;;;2.75;1.65;;;6.30;99.90;;;;;;4985293;28;20030;-66
2022/01/06 09:54:36;;;;;;;0.85;0.85;;;6.30;99.90;;;;;;4987690;28;20079;-66
2022/01/06 09:57:03;;;;;;;13.98;2.05;;;6.50;99.90;;;;;;4986967;28;20058;-66
2022/01/06 09:59:28;;;;;;;2.40;1.42;;;6.40;99.90;;;;;;4989458;28;20109;-66
2022/01/06 10:01:54;;;;;;;3.88;1.90;;;6.80;99.90;;;;;;4989645;28;20551;-66
2022/01/06 10:04:25;;;;;;;3.75;1.52;;;6.80;99.90;;;;;;4982830;28;20037;-66
2022/01/06 10:07:04;;;;;;;26.33;2.50;;;7.00;99.90;;;;;;4988569;28;20030;-66
2022/01/06 10:09:33;;;;;;;7.05;2.03;;;7.20;99.90;;;;;;4984913;28;20038;-68
2022/01/06 10:11:59;;;;;;;5.90;2.08;;;7.70;99.90;;;;;;4989056;28;20449;-66
2022/01/06 10:14:38;;;;;;;8.02;1.65;;;8.30;99.90;;;;;;4986365;28;20544;-66
2022/01/06 10:17:04;;;;;;;1.77;1.20;;;8.70;99.90;;;;;;4982345;28;20023;-66
2022/01/06 10:19:30;;;;;;;6.75;2.53;;;8.10;99.90;;;;;;4992000;28;20024;-65
2022/01/06 10:21:59;;;;;;;1.15;0.75;;;7.80;99.90;;;;;;4987475;28;20045;-66
2022/01/06 10:24:29;;;;;;;4.95;1.65;;;7.50;99.90;;;;;;4986554;28;20031;-66
2022/01/06 10:27:04;;;;;;;1.45;0.93;;;7.40;99.90;;;;;;4988018;28;20430;-66
2022/01/06 10:29:43;;;;;;;4.05;2.17;;;7.60;99.90;;;;;;4992253;28;20131;-65
2022/01/06 10:32:15;;;;;;;8.95;3.92;;;7.80;99.90;;;;;;4986565;28;20032;-65
2022/01/06 10:34:44;;;;;;;5.55;2.30;;;7.90;99.90;;;;;;4980169;28;20109;-66
2022/01/06 10:37:20;;;;;;;6.38;2.08;;;7.80;99.90;;;;;;4989244;28;20138;-66
2022/01/06 10:39:47;;;;;;;2.50;1.48;;;7.80;99.90;;;;;;4986107;28;20045;-66
2022/01/06 10:42:13;;;;;;;5.25;2.35;;;8.20;99.90;;;;;;4989832;28;20506;-66
2022/01/06 10:44:47;;;;;;;4.78;1.77;;;8.50;99.90;;;;;;4990990;28;20363;-65
2022/01/06 10:47:13;;;;;;;10.40;1.60;;;8.90;99.90;;;;;;4980701;28;20050;-66
2022/01/06 10:49:38;;;;;;;3.42;1.40;;;9.20;99.90;;;;;;4994489;28;20054;-68
2022/01/06 10:52:04;;;;;;;6.18;2.20;;;9.60;99.90;;;;;;4987674;28;20061;-66
2022/01/06 10:54:30;;;;;;;3.83;1.75;;;9.30;99.90;;;;;;4984659;28;20041;-66
2022/01/06 10:57:01;;;;;;;3.10;1.27;;;8.40;99.90;;;;;;4986705;28;20027;-66
2022/01/06 10:59:34;;;;;;;8.40;2.80;;;8.30;99.90;;;;;;4984182;28;20754;-66
2022/01/06 11:02:01;;;;;;;5.65;2.50;;;8.60;99.90;;;;;;4982960;28;20031;-68
2022/01/06 11:04:28;;;;;;;1.48;1.30;;;8.20;99.90;;;;;;4980471;28;20098;-68
2022/01/06 11:06:54;;;;;;;2.80;1.08;;;8.60;99.90;;;;;;4984895;28;20033;-66
2022/01/06 11:09:20;;;;;;;4.13;1.40;;;8.80;99.90;;;;;;4981533;28;20043;-66
2022/01/06 11:14:25;;;;;;;12.15;2.15;;;9.30;99.90;;;;;;4955450;28;20051;-67
2022/01/06 11:16:51;;;;;;;7.82;2.03;;;9.30;99.90;;;;;;4960616;28;20403;-66
2022/01/06 11:19:17;;;;;;;4.13;1.98;;;9.60;99.90;;;;;;4957235;28;20026;-66
2022/01/06 11:21:46;;;;;;;1.25;0.85;;;9.90;99.90;;;;;;4967518;28;20026;-66
2022/01/06 11:24:27;;;;;;;13.43;1.95;;;9.70;99.90;;;;;;4962821;28;20651;-66
2022/01/06 11:27:29;;;;;;;1.98;1.15;;;10.00;99.90;;;;;;4962016;28;20027;-66
2022/01/06 11:29:55;;;;;;;30.27;2.17;;;9.60;99.90;;;;;;4965449;28;20038;-66
2022/01/06 11:32:24;;;;;;;8.00;1.95;;;9.40;99.90;;;;;;4958674;28;20027;-66
2022/01/06 11:34:51;;;;;;;5.57;2.13;;;10.10;99.90;;;;;;4958047;28;20031;-67
2022/01/06 11:37:17;;;;;;;3.67;1.67;;;10.60;99.90;;;;;;4963601;28;20023;-67
2022/01/06 11:39:43;;;;;;;3.45;1.35;;;10.60;99.90;;;;;;4961580;28;20078;-67
2022/01/06 11:42:25;;;;;;;3.22;1.40;;;11.00;99.90;;;;;;4961328;28;20058;-67
2022/01/06 11:44:53;;;;;;;4.93;1.27;;;10.60;99.90;;;;;;4953376;28;20018;-67
2022/01/06 11:47:37;;;;;;;4.72;1.33;;;10.80;99.90;;;;;;4960073;28;20138;-67
2022/01/06 11:50:25;;;;;;;10.23;1.90;;;11.10;99.90;;;;;;4963049;28;20106;-67
2022/01/06 11:52:55;;;;;;;3.60;1.02;;;11.00;99.90;;;;;;4961136;28;20037;-67
2022/01/06 11:55:23;;;;;;;4.40;1.63;;;11.50;99.90;;;;;;4965042;28;20487;-67
2022/01/06 11:57:49;;;;;;;12.07;1.80;;;11.30;99.90;;;;;;4963825;28;20045;-67
2022/01/06 12:00:26;;;;;;;9.48;1.77;;;10.90;99.90;;;;;;4961132;28;20027;-67
2022/01/06 12:02:55;;;;;;;19.20;2.08;;;11.40;99.90;;;;;;4957430;28;20557;-67
2022/01/06 12:05:21;;;;;;;3.38;0.93;;;11.00;99.90;;;;;;4956547;28;20025;-67
2022/01/06 12:07:52;;;;;;;9.98;1.70;;;10.80;99.90;;;;;;4965193;28;20035;-67
2022/01/06 12:10:20;;;;;;;8.77;1.52;;;10.60;99.90;;;;;;4954095;28;20051;-67
2022/01/06 12:12:50;;;;;;;3.38;1.27;;;10.70;99.90;;;;;;4961380;28;20027;-67
2022/01/06 12:15:18;;;;;;;9.43;2.17;;;9.80;99.90;;;;;;4962264;28;20042;-67
2022/01/06 12:17:52;;;;;;;8.68;2.55;;;10.00;99.90;;;;;;4965832;28;20138;-67
2022/01/06 12:20:24;;;;;;;4.88;1.70;;;10.20;99.90;;;;;;4961403;28;20442;-67
2022/01/06 12:22:50;;;;;;;8.07;1.90;;;11.10;99.90;;;;;;4955578;28;20149;-67
2022/01/06 12:25:20;;;;;;;11.50;3.25;;;11.10;99.90;;;;;;4958908;28;20388;-67
2022/01/06 12:27:49;;;;;;;10.57;2.63;;;11.70;99.90;;;;;;4953772;28;20034;-67
2022/01/06 12:30:19;;;;;;;13.70;3.35;;;11.60;99.90;;;;;;4949750;28;20035;-67
2022/01/06 12:32:56;;;;;;;6.22;1.92;;;11.60;99.90;;;;;;4960305;28;20039;-67
2022/01/06 12:35:41;;;;;;;10.77;2.67;;;11.20;99.90;;;;;;4955825;28;20023;-67
2022/01/06 12:38:08;;;;;;;15.18;4.03;;;10.30;99.90;;;;;;4963148;28;20484;-67
2022/01/06 12:40:36;;;;;;;8.70;2.60;;;10.20;99.90;;;;;;4957809;28;20042;-67
2022/01/06 12:43:23;;;;;;;14.13;3.13;;;10.40;99.90;;;;;;4968782;28;20507;-67
2022/01/06 12:46:16;;;;;;;12.25;4.35;;;10.30;99.90;;;;;;4961434;28;20074;-67
2022/01/06 12:48:48;;;;;;;13.57;4.18;;;10.10;99.90;;;;;;4965324;28;20566;-67
2022/01/06 12:51:19;;;;;;;8.70;3.05;;;9.80;99.90;;;;;;4966155;28;20154;-67
2022/01/06 12:53:47;;;;;;;9.88;2.83;;;9.30;99.90;;;;;;4966468;28;20047;-67
2022/01/06 12:56:30;;;;;;;2.92;1.75;;;9.70;99.90;;;;;;4967283;28;20031;-67
2022/01/06 12:58:58;;;;;;;17.45;4.85;;;9.30;99.90;;;;;;4963449;28;20397;-67
2022/01/06 13:01:25;;;;;;;19.40;4.28;;;9.70;99.90;;;;;;4961512;28;20426;-67
2022/01/06 13:03:54;;;;;;;12.15;3.17;;;9.80;99.90;;;;;;4969822;28;20722;-67